Decoded Metar for GMAD (AL MASSIRA MC in MOROCCO) (IATA:N/A) | Meteo·Mobile Aviation Weather
aviador You're here:

GMAD Decoded Metar

AL MASSIRA MC in MOROCCO
Report Time2018-08-21 10:30:00
UTC Time2018-08-21 10:37:37
Flight Rules mvfr MVFR
WindCalm
Visibility9999 m
Phenomena:N/A
Clouds:Scattered 006 Hf
Broken 016 Hf
Expected CloudBase > 1,600 ft AGL from Temp-Dew spread
Ceiling1,600 ft
Temp22°C (ISA +7)
Dew Point18°C (78% RH)
QNH1015 hPa
Density Alt1,322 ft
Elevation243 ft
Report Wrong Elevation
Raw Report
GMAD 211030Z 00000KT 9999 SCT006 BKN016 22/18 Q1015 NOSIG=

Extra information for GMAD:More info

Metar Taf Metar & Taf Last 4 Metars F.Rules Stats Wind Profile Meteogram Temp Stats Airport Information Weather charts Add Link Nearby VenuesMetar ALERT Operation Metar Decoded Social comments